createdAt,value
2023-10-30T00:01:55.580Z,10.36
2023-10-30T00:04:22.231Z,10.36
2023-10-30T00:06:48.942Z,10.36
2023-10-30T00:09:18.549Z,10.34
2023-10-30T00:11:48.046Z,10.32
2023-10-30T00:14:14.591Z,10.32
2023-10-30T00:16:41.219Z,10.33
2023-10-30T00:19:07.727Z,10.33
2023-10-30T00:21:34.283Z,10.34
2023-10-30T00:24:02.478Z,10.34
2023-10-30T00:26:30.913Z,10.31
2023-10-30T00:28:58.672Z,10.33
2023-10-30T00:31:26.029Z,10.34
2023-10-30T00:33:52.909Z,10.35
2023-10-30T00:36:19.432Z,10.36
2023-10-30T00:38:46.341Z,10.35
2023-10-30T00:41:12.891Z,10.35
2023-10-30T00:43:39.660Z,10.35
2023-10-30T00:46:07.997Z,10.32
2023-10-30T00:48:35.492Z,10.32
2023-10-30T00:51:02.067Z,10.32
2023-10-30T00:53:28.663Z,10.33
2023-10-30T00:55:55.196Z,10.33
2023-10-30T00:58:22.832Z,10.31
2023-10-30T01:00:49.433Z,10.32
2023-10-30T01:03:16.736Z,10.32
2023-10-30T01:05:43.591Z,10.31
2023-10-30T01:08:10.268Z,10.30
2023-10-30T01:10:37.672Z,10.30
2023-10-30T01:13:04.337Z,10.28
2023-10-30T01:15:31.260Z,10.29
2023-10-30T01:17:58.368Z,10.28
2023-10-30T01:20:25.087Z,10.27
2023-10-30T01:22:51.809Z,10.25
2023-10-30T01:25:18.834Z,10.26
2023-10-30T01:27:46.160Z,10.25
2023-10-30T01:30:13.596Z,10.24
2023-10-30T01:32:40.242Z,10.23
2023-10-30T01:35:06.982Z,10.21
2023-10-30T01:37:33.487Z,10.22
2023-10-30T01:40:00.052Z,10.24
2023-10-30T01:42:26.672Z,10.25
2023-10-30T01:44:58.076Z,10.26
2023-10-30T01:47:28.282Z,10.26
2023-10-30T01:49:56.757Z,10.26
2023-10-30T01:52:24.374Z,10.28
2023-10-30T01:54:53.882Z,10.29
2023-10-30T01:57:22.523Z,10.29
2023-10-30T01:59:52.776Z,10.31
2023-10-30T02:02:22.737Z,10.32
2023-10-30T02:04:49.553Z,10.34
2023-10-30T02:07:18.013Z,10.32
2023-10-30T02:09:48.175Z,10.31
2023-10-30T02:12:15.005Z,10.31
2023-10-30T02:14:41.640Z,10.29
2023-10-30T02:17:08.167Z,10.29
2023-10-30T02:19:34.679Z,10.30
2023-10-30T02:22:01.194Z,10.29
2023-10-30T02:24:27.759Z,10.31
2023-10-30T02:26:54.295Z,10.31
2023-10-30T02:29:20.887Z,10.32
2023-10-30T02:31:48.199Z,10.33
2023-10-30T02:34:15.511Z,10.34
2023-10-30T02:36:42.440Z,10.33
2023-10-30T02:39:09.689Z,10.34
2023-10-30T02:41:36.520Z,10.34
2023-10-30T02:44:03.143Z,10.36
2023-10-30T02:46:29.696Z,10.36
2023-10-30T02:48:57.075Z,10.35
2023-10-30T02:51:23.762Z,10.36
2023-10-30T02:53:50.378Z,10.38
2023-10-30T02:56:16.925Z,10.39
2023-10-30T02:58:43.478Z,10.38
2023-10-30T03:01:09.950Z,10.40
2023-10-30T03:03:36.681Z,10.38
2023-10-30T03:06:03.584Z,10.39
2023-10-30T03:08:30.065Z,10.39
2023-10-30T03:10:56.617Z,10.39
2023-10-30T03:13:23.105Z,10.38
2023-10-30T03:15:49.683Z,10.37
2023-10-30T03:18:16.282Z,10.38
2023-10-30T03:20:42.826Z,10.36
2023-10-30T03:23:09.351Z,10.35
2023-10-30T03:25:35.824Z,10.35
2023-10-30T03:28:03.375Z,10.32
2023-10-30T03:30:29.922Z,10.32
2023-10-30T03:32:56.543Z,10.29
2023-10-30T03:35:23.168Z,10.26
2023-10-30T03:37:49.636Z,10.25
2023-10-30T03:40:16.228Z,10.25
2023-10-30T03:42:42.744Z,10.24
2023-10-30T03:45:09.587Z,10.22
2023-10-30T03:47:36.099Z,10.16
2023-10-30T03:50:02.706Z,10.14
2023-10-30T03:52:29.411Z,10.15
2023-10-30T03:55:00.371Z,10.14
2023-10-30T03:57:27.104Z,10.18
2023-10-30T03:59:53.831Z,10.16
2023-10-30T04:02:20.326Z,10.18
2023-10-30T04:04:46.931Z,10.18
2023-10-30T04:07:13.655Z,10.16
2023-10-30T04:09:40.415Z,10.14
2023-10-30T04:12:07.368Z,10.12
2023-10-30T04:14:33.922Z,10.12
2023-10-30T04:17:03.753Z,10.12
2023-10-30T04:19:30.796Z,10.11
2023-10-30T04:21:57.331Z,10.12
2023-10-30T04:24:23.860Z,10.06
2023-10-30T04:26:50.408Z,10.10
2023-10-30T04:29:18.451Z,10.08
2023-10-30T04:31:45.104Z,10.03
2023-10-30T04:34:11.752Z,10.05
2023-10-30T04:36:38.325Z,10.03
2023-10-30T04:39:04.958Z,10.03
2023-10-30T04:41:34.569Z,10.02
2023-10-30T04:44:01.157Z,10.00
2023-10-30T04:46:27.667Z,9.99
2023-10-30T04:48:54.172Z,9.99
2023-10-30T04:51:20.786Z,9.99
2023-10-30T04:53:47.306Z,10.00
2023-10-30T04:56:13.895Z,10.02
2023-10-30T04:58:40.528Z,10.05
2023-10-30T05:01:11.166Z,10.05
2023-10-30T05:03:38.517Z,10.07
2023-10-30T05:06:06.063Z,10.08
2023-10-30T05:08:33.213Z,10.09
2023-10-30T05:11:03.120Z,10.07
2023-10-30T05:13:30.340Z,10.07
2023-10-30T05:15:58.366Z,10.09
2023-10-30T05:18:26.344Z,10.09
2023-10-30T05:20:52.961Z,10.08
2023-10-30T05:23:19.602Z,10.08
2023-10-30T05:25:46.445Z,10.09
2023-10-30T05:28:13.540Z,10.08
2023-10-30T05:30:40.885Z,10.05
2023-10-30T05:33:07.673Z,10.05
2023-10-30T05:35:34.388Z,10.06
2023-10-30T05:38:01.074Z,10.08
2023-10-30T05:40:27.630Z,10.06
2023-10-30T05:42:54.268Z,10.04
2023-10-30T05:45:20.787Z,10.08
2023-10-30T05:47:47.351Z,10.01
2023-10-30T05:50:13.898Z,9.97
2023-10-30T05:52:40.414Z,9.96
2023-10-30T05:55:08.493Z,9.98
2023-10-30T05:57:36.307Z,10.01
2023-10-30T06:00:03.044Z,10.01
2023-10-30T06:02:29.917Z,10.00
2023-10-30T06:04:56.421Z,9.99
2023-10-30T06:07:22.961Z,9.98
2023-10-30T06:09:50.312Z,10.02
2023-10-30T06:12:17.104Z,10.03
2023-10-30T06:14:43.903Z,10.04
2023-10-30T06:17:10.466Z,10.05
2023-10-30T06:19:37.020Z,10.08
2023-10-30T06:22:04.179Z,10.06
2023-10-30T06:24:32.370Z,10.04
2023-10-30T06:26:59.074Z,10.05
2023-10-30T06:29:25.578Z,10.05
2023-10-30T06:31:52.181Z,10.04
2023-10-30T06:34:18.710Z,10.06
2023-10-30T06:36:47.383Z,10.09
2023-10-30T06:39:19.017Z,10.11
2023-10-30T06:41:45.635Z,10.11
2023-10-30T06:44:12.427Z,10.12
2023-10-30T06:46:39.003Z,10.14
2023-10-30T06:49:05.503Z,10.15
2023-10-30T06:51:32.100Z,10.13
2023-10-30T06:53:58.654Z,10.10
2023-10-30T06:56:25.135Z,10.01
2023-10-30T06:58:51.603Z,10.00
2023-10-30T07:01:18.297Z,9.99
2023-10-30T07:03:45.017Z,10.00
2023-10-30T07:06:12.398Z,10.00
2023-10-30T07:08:39.094Z,10.03
2023-10-30T07:11:05.757Z,10.12
2023-10-30T07:13:32.310Z,10.20
2023-10-30T07:15:58.881Z,10.26
2023-10-30T07:18:25.438Z,10.28
2023-10-30T07:20:51.991Z,10.37
2023-10-30T07:23:18.917Z,10.45
2023-10-30T07:25:45.575Z,10.49
2023-10-30T07:28:13.057Z,10.54
2023-10-30T07:30:39.982Z,10.57
2023-10-30T07:33:09.033Z,10.61
2023-10-30T07:35:35.818Z,10.66
2023-10-30T07:38:02.404Z,10.71
2023-10-30T07:40:28.891Z,10.77
2023-10-30T07:42:58.359Z,10.81
2023-10-30T07:45:25.492Z,10.87
2023-10-30T07:47:53.567Z,10.87
2023-10-30T07:50:20.183Z,10.89
2023-10-30T07:52:46.994Z,10.88
2023-10-30T07:55:14.161Z,10.90
2023-10-30T07:57:41.221Z,10.93
2023-10-30T08:00:09.576Z,10.96
2023-10-30T08:02:36.264Z,11.02
2023-10-30T08:05:02.806Z,11.04
2023-10-30T08:07:29.469Z,11.09
2023-10-30T08:09:56.427Z,11.15
2023-10-30T08:12:23.457Z,11.18
2023-10-30T08:14:50.276Z,11.21
2023-10-30T08:17:16.929Z,11.25
2023-10-30T08:19:43.422Z,11.28
2023-10-30T08:22:09.983Z,11.35
2023-10-30T08:24:36.517Z,11.37
2023-10-30T08:27:03.166Z,11.40
2023-10-30T08:29:29.734Z,11.42
2023-10-30T08:31:56.240Z,11.47
2023-10-30T08:34:22.761Z,11.50
2023-10-30T08:36:49.413Z,11.53
2023-10-30T08:39:16.172Z,11.56
2023-10-30T08:41:42.766Z,11.57
2023-10-30T08:44:09.260Z,11.61
2023-10-30T08:46:35.957Z,11.64
2023-10-30T08:49:02.614Z,11.67
2023-10-30T08:51:29.287Z,11.70
2023-10-30T08:53:56.013Z,11.72
2023-10-30T08:56:22.694Z,11.74
2023-10-30T08:58:49.371Z,11.75
2023-10-30T09:01:15.985Z,11.76
2023-10-30T09:03:42.816Z,11.75
2023-10-30T09:06:09.663Z,11.79
2023-10-30T09:08:36.259Z,11.79
2023-10-30T09:11:02.803Z,11.79
2023-10-30T09:13:29.291Z,11.84
2023-10-30T09:15:55.872Z,11.87
2023-10-30T09:18:22.415Z,11.91
2023-10-30T09:20:49.003Z,11.98
2023-10-30T09:23:15.551Z,12.01
2023-10-30T09:25:42.035Z,12.05
2023-10-30T09:28:08.680Z,12.08
2023-10-30T09:30:35.302Z,12.11
2023-10-30T09:33:02.026Z,12.14
2023-10-30T09:35:33.044Z,12.17
2023-10-30T09:37:59.770Z,12.17
2023-10-30T09:40:29.616Z,12.19
2023-10-30T09:42:56.735Z,12.22
2023-10-30T09:45:25.140Z,12.26
2023-10-30T09:47:55.000Z,12.31
2023-10-30T09:50:22.839Z,12.36
2023-10-30T09:52:54.143Z,12.42
2023-10-30T09:55:23.136Z,12.45
2023-10-30T09:57:54.576Z,12.50
2023-10-30T10:00:21.868Z,12.55
2023-10-30T10:02:48.593Z,12.60
2023-10-30T10:05:16.300Z,12.66
2023-10-30T10:07:42.852Z,12.72
2023-10-30T10:10:09.797Z,12.78
2023-10-30T10:12:40.334Z,12.81
2023-10-30T10:15:08.256Z,12.82
2023-10-30T10:17:51.656Z,12.82
2023-10-30T10:20:22.956Z,12.80
2023-10-30T10:22:49.736Z,12.79
2023-10-30T10:25:19.621Z,12.79
2023-10-30T10:27:48.143Z,12.77
2023-10-30T10:30:16.692Z,12.80
2023-10-30T10:32:43.763Z,12.82
2023-10-30T10:35:12.381Z,12.83
2023-10-30T10:37:39.000Z,12.88
2023-10-30T10:40:06.991Z,12.92
2023-10-30T10:42:34.213Z,12.96
2023-10-30T10:45:00.798Z,12.99
2023-10-30T10:47:27.468Z,13.01
2023-10-30T10:49:54.048Z,13.03
2023-10-30T10:52:24.916Z,13.04
2023-10-30T10:55:04.351Z,13.02
2023-10-30T10:57:41.242Z,13.08
2023-10-30T11:00:12.519Z,13.14
2023-10-30T11:02:41.078Z,13.17
2023-10-30T11:05:09.554Z,13.24
2023-10-30T11:07:47.005Z,13.29
2023-10-30T11:10:36.107Z,13.31
2023-10-30T11:13:14.564Z,13.35
2023-10-30T11:15:55.290Z,13.40
2023-10-30T11:18:24.991Z,13.43
2023-10-30T11:21:12.572Z,13.46
2023-10-30T11:23:45.100Z,13.49
2023-10-30T11:26:37.113Z,13.49
2023-10-30T11:29:18.576Z,13.47
2023-10-30T11:32:02.992Z,13.47
2023-10-30T11:34:30.445Z,13.49
2023-10-30T11:37:03.982Z,13.46
2023-10-30T11:39:34.164Z,13.47
2023-10-30T11:42:01.912Z,13.48
2023-10-30T11:44:32.658Z,13.51
2023-10-30T11:46:59.719Z,13.52
2023-10-30T11:49:32.226Z,13.55
2023-10-30T11:51:58.849Z,13.56
2023-10-30T11:54:33.830Z,13.55
2023-10-30T11:57:01.423Z,13.55
2023-10-30T11:59:28.752Z,13.54
2023-10-30T12:01:58.025Z,13.51
2023-10-30T12:04:25.762Z,13.51
2023-10-30T12:06:52.923Z,13.48
2023-10-30T12:09:20.477Z,13.47
2023-10-30T12:11:47.983Z,13.46
2023-10-30T12:14:15.369Z,13.43
2023-10-30T12:16:52.203Z,13.36
2023-10-30T12:19:23.204Z,13.35
2023-10-30T12:21:50.813Z,13.33
2023-10-30T12:24:20.665Z,13.32
2023-10-30T12:26:48.144Z,13.32
2023-10-30T12:29:25.889Z,13.25
2023-10-30T12:32:04.122Z,13.26
2023-10-30T12:34:32.130Z,13.24
2023-10-30T12:36:58.900Z,13.25
2023-10-30T12:39:27.610Z,13.22
2023-10-30T12:41:56.760Z,13.22
2023-10-30T12:44:30.254Z,13.25
2023-10-30T12:46:56.824Z,13.21
2023-10-30T12:49:23.368Z,13.21
2023-10-30T12:51:50.054Z,13.16
2023-10-30T12:54:16.642Z,13.19
2023-10-30T12:56:43.333Z,13.18
2023-10-30T12:59:09.941Z,13.17
2023-10-30T13:01:44.878Z,13.12
2023-10-30T13:04:24.157Z,13.10
2023-10-30T13:06:52.544Z,13.08
2023-10-30T13:09:19.009Z,13.05
2023-10-30T13:11:45.597Z,13.03
2023-10-30T13:14:12.199Z,13.07
2023-10-30T13:16:38.834Z,13.07
2023-10-30T13:19:05.611Z,13.07
2023-10-30T13:21:32.182Z,13.07
2023-10-30T13:23:59.076Z,13.12
2023-10-30T13:26:27.341Z,13.17
2023-10-30T13:28:54.018Z,13.15
2023-10-30T13:31:20.557Z,13.16
2023-10-30T13:33:49.413Z,13.20
2023-10-30T13:36:19.254Z,13.20
2023-10-30T13:38:46.181Z,13.22
2023-10-30T13:41:12.989Z,13.23
2023-10-30T13:43:39.599Z,13.26
2023-10-30T13:46:06.183Z,13.23
2023-10-30T13:48:32.784Z,13.21
2023-10-30T13:50:59.370Z,13.20
2023-10-30T13:53:25.947Z,13.21
2023-10-30T13:55:53.179Z,13.21
2023-10-30T13:58:19.723Z,13.22
2023-10-30T14:00:46.341Z,13.27
2023-10-30T14:03:13.529Z,13.25
2023-10-30T14:05:40.500Z,13.21
2023-10-30T14:08:07.030Z,13.18
2023-10-30T14:10:33.643Z,13.18
2023-10-30T14:13:00.732Z,13.19
2023-10-30T14:15:27.361Z,13.19
2023-10-30T14:17:55.074Z,13.17
2023-10-30T14:20:21.771Z,13.18
2023-10-30T14:22:48.979Z,13.16
2023-10-30T14:25:15.690Z,13.18
2023-10-30T14:27:42.356Z,13.17
2023-10-30T14:30:09.950Z,13.17
2023-10-30T14:32:36.723Z,13.18
2023-10-30T14:35:04.283Z,13.16
2023-10-30T14:37:30.804Z,13.19
2023-10-30T14:39:57.386Z,13.20
2023-10-30T14:42:23.962Z,13.19
2023-10-30T14:44:52.391Z,13.16
2023-10-30T14:47:19.854Z,13.15
2023-10-30T14:49:46.437Z,13.13
2023-10-30T14:52:12.955Z,13.14
2023-10-30T14:54:40.152Z,13.14
2023-10-30T14:57:06.695Z,13.10
2023-10-30T14:59:33.276Z,13.08
2023-10-30T15:01:59.900Z,13.09
2023-10-30T15:04:26.868Z,13.09
2023-10-30T15:06:53.531Z,13.09
2023-10-30T15:09:20.558Z,13.07
2023-10-30T15:11:47.039Z,13.06
2023-10-30T15:14:13.726Z,13.05
2023-10-30T15:16:40.354Z,13.05
2023-10-30T15:19:10.012Z,13.08
2023-10-30T15:21:37.155Z,13.05
2023-10-30T15:24:03.957Z,13.00
2023-10-30T15:26:30.458Z,12.99
2023-10-30T15:28:56.960Z,12.99
2023-10-30T15:31:27.080Z,12.99
2023-10-30T15:33:54.799Z,12.99
2023-10-30T15:36:21.459Z,12.98
2023-10-30T15:38:47.962Z,13.00
2023-10-30T15:41:14.506Z,13.02
2023-10-30T15:43:41.061Z,13.07
2023-10-30T15:46:08.431Z,13.07
2023-10-30T15:48:35.157Z,13.04
2023-10-30T15:51:01.719Z,13.06
2023-10-30T16:01:01.567Z,13.01
2023-10-30T16:03:32.089Z,13.00
2023-10-30T16:08:47.219Z,12.96
2023-10-30T16:11:30.441Z,12.97
2023-10-30T16:13:57.884Z,12.96
2023-10-30T16:16:24.901Z,12.92
2023-10-30T16:21:27.997Z,12.82
2023-10-30T16:23:55.051Z,12.77
2023-10-30T16:26:21.594Z,12.73
2023-10-30T16:28:48.113Z,12.73
2023-10-30T16:31:14.934Z,12.72
2023-10-30T16:33:41.764Z,12.70
2023-10-30T16:36:08.671Z,12.70
2023-10-30T16:38:35.195Z,12.68
2023-10-30T16:41:01.832Z,12.68
2023-10-30T16:43:28.480Z,12.68
2023-10-30T16:45:55.269Z,12.66
2023-10-30T16:48:21.995Z,12.64
2023-10-30T16:50:49.391Z,12.59
2023-10-30T16:53:17.201Z,12.55
2023-10-30T16:55:44.175Z,12.55
2023-10-30T16:58:13.491Z,12.57
2023-10-30T17:00:40.138Z,12.57
2023-10-30T17:03:06.866Z,12.55
2023-10-30T17:05:33.510Z,12.57
2023-10-30T17:08:00.033Z,12.57
2023-10-30T17:10:26.597Z,12.57
2023-10-30T17:12:53.173Z,12.58
2023-10-30T17:15:19.759Z,12.56
2023-10-30T17:17:46.455Z,12.55
2023-10-30T17:20:13.341Z,12.52
2023-10-30T17:22:39.972Z,12.46
2023-10-30T17:25:07.211Z,12.50
2023-10-30T17:27:33.730Z,12.46
2023-10-30T17:30:00.536Z,12.49
2023-10-30T17:32:27.132Z,12.46
2023-10-30T17:34:53.764Z,12.46
2023-10-30T17:37:21.234Z,12.47
2023-10-30T17:39:48.005Z,12.46
2023-10-30T17:42:14.854Z,12.44
2023-10-30T17:44:41.389Z,12.47
2023-10-30T17:47:08.020Z,12.47
2023-10-30T17:49:34.584Z,12.52
2023-10-30T17:52:01.072Z,12.52
2023-10-30T17:54:27.523Z,12.48
2023-10-30T17:56:54.043Z,12.51
2023-10-30T17:59:20.849Z,12.54
2023-10-30T18:01:49.278Z,12.53
2023-10-30T18:04:16.682Z,12.54
2023-10-30T18:06:43.451Z,12.58
2023-10-30T18:09:10.441Z,12.56
2023-10-30T18:11:37.119Z,12.60
2023-10-30T18:14:03.746Z,12.54
2023-10-30T18:16:30.535Z,12.56
2023-10-30T18:18:57.110Z,12.59
2023-10-30T18:21:23.640Z,12.54
2023-10-30T18:23:50.194Z,12.52
2023-10-30T18:26:22.376Z,12.50
2023-10-30T18:28:49.001Z,12.47
2023-10-30T18:31:15.586Z,12.46
2023-10-30T18:33:42.078Z,12.45
2023-10-30T18:36:08.832Z,12.42
2023-10-30T18:38:35.373Z,12.43
2023-10-30T18:41:03.340Z,12.48
2023-10-30T18:43:30.487Z,12.48
2023-10-30T18:45:57.914Z,12.44
2023-10-30T18:48:24.536Z,12.47
2023-10-30T18:50:51.761Z,12.47
2023-10-30T18:53:18.349Z,12.50
2023-10-30T18:55:44.880Z,12.50
2023-10-30T18:58:11.421Z,12.50
2023-10-30T19:00:37.964Z,12.50
2023-10-30T19:03:04.477Z,12.48
2023-10-30T19:05:31.104Z,12.45
2023-10-30T19:07:57.892Z,12.46
2023-10-30T19:10:25.525Z,12.40
2023-10-30T19:12:52.068Z,12.41
2023-10-30T19:15:20.288Z,12.42
2023-10-30T19:17:46.825Z,12.43
2023-10-30T19:20:13.908Z,12.44
2023-10-30T19:22:40.465Z,12.44
2023-10-30T19:25:07.239Z,12.42
2023-10-30T19:27:33.765Z,12.38
2023-10-30T19:30:00.353Z,12.37
2023-10-30T19:32:26.974Z,12.36
2023-10-30T19:34:53.691Z,12.38
2023-10-30T19:37:20.216Z,12.37
2023-10-30T19:39:46.902Z,12.41
2023-10-30T19:42:13.416Z,12.39
2023-10-30T19:44:39.937Z,12.38
2023-10-30T19:47:06.517Z,12.42
2023-10-30T19:49:35.050Z,12.40
2023-10-30T19:52:05.750Z,12.33
2023-10-30T19:54:33.577Z,12.31
2023-10-30T19:57:00.171Z,12.26
2023-10-30T19:59:26.733Z,12.16
2023-10-30T20:01:53.333Z,12.19
2023-10-30T20:04:19.855Z,12.24
2023-10-30T20:06:46.396Z,12.24
2023-10-30T20:09:14.318Z,12.21
2023-10-30T20:11:40.879Z,12.21
2023-10-30T20:14:07.445Z,12.18
2023-10-30T20:16:34.017Z,12.21
2023-10-30T20:19:00.644Z,12.22
2023-10-30T20:21:27.119Z,12.08
2023-10-30T20:23:53.669Z,12.04
2023-10-30T20:26:21.538Z,12.03
2023-10-30T20:28:48.131Z,12.11
2023-10-30T20:31:14.682Z,12.07
2023-10-30T20:33:41.660Z,11.94
2023-10-30T20:36:08.568Z,11.85
2023-10-30T20:38:35.081Z,11.83
2023-10-30T20:41:01.911Z,11.91
2023-10-30T20:43:28.818Z,11.98
2023-10-30T20:45:55.347Z,11.95
2023-10-30T20:48:21.908Z,11.89
2023-10-30T20:50:49.104Z,11.81
2023-10-30T20:53:17.683Z,11.83
2023-10-30T20:55:45.538Z,11.89
2023-10-30T20:58:12.166Z,11.84
2023-10-30T21:00:39.220Z,11.77
2023-10-30T21:03:07.205Z,11.78
2023-10-30T21:05:34.116Z,11.81
2023-10-30T21:08:00.834Z,11.80
2023-10-30T21:10:27.427Z,11.79
2023-10-30T21:12:57.375Z,11.84
2023-10-30T21:15:24.865Z,11.75
2023-10-30T21:17:51.778Z,11.73
2023-10-30T21:20:20.521Z,11.77
2023-10-30T21:22:47.274Z,11.79
2023-10-30T21:25:14.328Z,11.75
2023-10-30T21:27:41.796Z,11.69
2023-10-30T21:30:08.761Z,11.75
2023-10-30T21:32:35.779Z,11.79
2023-10-30T21:35:02.636Z,11.76
2023-10-30T21:37:29.296Z,11.72
2023-10-30T21:39:57.543Z,11.71
2023-10-30T21:42:26.637Z,11.71
2023-10-30T21:44:53.302Z,11.76
2023-10-30T21:47:19.816Z,11.76
2023-10-30T21:49:46.417Z,11.74
2023-10-30T21:52:12.973Z,11.68
2023-10-30T21:54:39.582Z,11.67
2023-10-30T21:57:06.091Z,11.67
2023-10-30T21:59:32.645Z,11.60
2023-10-30T22:01:59.339Z,11.64
2023-10-30T22:04:25.903Z,11.65
2023-10-30T22:06:52.403Z,11.64
2023-10-30T22:09:19.672Z,11.64
2023-10-30T22:11:46.898Z,11.56
2023-10-30T22:14:13.478Z,11.47
2023-10-30T22:16:40.196Z,11.43
2023-10-30T22:19:07.551Z,11.37
2023-10-30T22:21:34.109Z,11.35
2023-10-30T22:24:00.955Z,11.17
2023-10-30T22:26:27.529Z,11.09
2023-10-30T22:28:54.116Z,11.02
2023-10-30T22:31:20.674Z,11.01
2023-10-30T22:33:48.346Z,10.96
2023-10-30T22:36:16.518Z,10.82
2023-10-30T22:38:43.250Z,10.72
2023-10-30T22:41:09.792Z,10.71
2023-10-30T22:43:36.395Z,10.68
2023-10-30T22:46:03.028Z,10.62
2023-10-30T22:48:29.549Z,10.61
2023-10-30T22:50:56.094Z,10.61
2023-10-30T22:53:22.593Z,10.66
2023-10-30T22:55:49.509Z,10.66
2023-10-30T22:58:16.093Z,10.68
2023-10-30T23:00:44.133Z,10.67
2023-10-30T23:03:10.993Z,10.62
2023-10-30T23:05:38.042Z,10.60
2023-10-30T23:08:06.263Z,10.58
2023-10-30T23:10:33.305Z,10.58
2023-10-30T23:13:00.347Z,10.55
2023-10-30T23:15:27.538Z,10.48
2023-10-30T23:17:54.076Z,10.40
2023-10-30T23:20:22.056Z,10.41
2023-10-30T23:22:48.623Z,10.40
2023-10-30T23:25:15.260Z,10.44
2023-10-30T23:27:41.881Z,10.41
2023-10-30T23:30:10.642Z,10.36
2023-10-30T23:32:37.630Z,10.32
2023-10-30T23:35:05.029Z,10.32
2023-10-30T23:37:31.760Z,10.30
2023-10-30T23:39:58.728Z,10.28
2023-10-30T23:42:25.504Z,10.24
2023-10-30T23:44:52.034Z,10.23
2023-10-30T23:47:18.777Z,10.19
2023-10-30T23:49:46.033Z,10.17
2023-10-30T23:52:12.650Z,10.19
2023-10-30T23:54:39.159Z,10.14
2023-10-30T23:57:05.796Z,10.12
2023-10-30T23:59:32.374Z,10.12
